Boulder, Wyoming
Current Conditions -  °F | °C
As of 6:15 PM on Tuesday 25 Nov 2014 (Local Time) from KPNA Reporting Station
Light Snow Light Snow  
Wind Chill: 30°   Ceiling: 1900
Heat Index: 30°   Visibility: 3mi
Dew Point: 30°   Wind: 0mph
Humidity: 100%   Direction: NA
Pressure: 30.08"   Gusts: NA
Location:  42.75°N, 109.72°W
Report Text: KPNA 260115Z AUTO 00000KT 3SM -SN OVC019 M01/M01 A3008 RMK AO2
Loading
Personal Weather Stations






























Interactive Weather Map New forecast layout! Learn more

10-Day Weather Forecast

Advertisements
Track Severe Weather on mobile